Time;durP1;ratioP1;P1;durP2;ratioP2;P2;SDS_P1;SDS_P2;PMS_P1;PMS_P2;Temp;Humidity;BMP_temperature;BMP_pressure;BME280_temperature;BME280_humidity;BME280_pressure;Samples;Min_cycle;Max_cycle;Signal;HPM_P1;HPM_P2
2022/01/09 00:01:17;;;;;;;17.70;6.85;;;;;;;-3.74;100.00;101366.50;1787391;78;21504;-83
2022/01/09 00:03:44;;;;;;;16.20;7.00;;;;;;;-3.72;100.00;101369.86;1787103;79;21026;-82
2022/01/09 00:06:14;;;;;;;15.08;6.40;;;;;;;-3.71;100.00;101366.05;1786815;78;21033;-84
2022/01/09 00:08:40;;;;;;;12.98;6.35;;;;;;;-3.69;100.00;101366.91;1786033;78;21022;-88
2022/01/09 00:11:09;;;;;;;13.38;6.53;;;;;;;-3.63;100.00;101361.36;1775570;79;21079;-84
2022/01/09 00:13:36;;;;;;;13.05;6.47;;;;;;;-3.61;100.00;101358.39;1770983;81;21549;-83
2022/01/09 00:16:05;;;;;;;15.35;6.90;;;;;;;-3.58;100.00;101355.81;1770997;80;21023;-84
2022/01/09 00:18:32;;;;;;;15.90;7.05;;;;;;;-3.58;100.00;101348.17;1738403;81;21056;-84
2022/01/09 00:21:05;;;;;;;13.22;6.53;;;;;;;-3.57;100.00;101347.32;1770779;80;21028;-85
2022/01/09 00:23:29;;;;;;;18.00;6.80;;;;;;;-3.55;100.00;101338.81;1766153;80;21142;-84
2022/01/09 00:25:56;;;;;;;14.50;6.72;;;;;;;-3.52;100.00;101336.27;1770782;81;21047;-83
2022/01/09 00:28:23;;;;;;;15.88;7.58;;;;;;;-3.49;100.00;101340.08;1771059;78;21105;-85
2022/01/09 00:30:50;;;;;;;13.30;5.85;;;;;;;-3.49;100.00;101334.13;1799538;78;21516;-83
2022/01/09 00:33:21;;;;;;;16.73;7.17;;;;;;;-3.51;100.00;101324.37;1786806;78;21770;-83
2022/01/09 00:35:46;;;;;;;16.20;6.62;;;;;;;-3.53;100.00;101318.02;1787046;78;21149;-84
2022/01/09 00:38:13;;;;;;;18.57;6.70;;;;;;;-3.54;100.00;101322.69;1737014;81;21020;-84
2022/01/09 00:40:41;;;;;;;16.52;7.00;;;;;;;-3.54;100.00;101318.87;1770832;80;21505;-84
2022/01/09 00:43:09;;;;;;;15.43;6.78;;;;;;;-3.54;100.00;101315.05;1770815;80;21019;-83
2022/01/09 00:45:39;;;;;;;14.58;6.67;;;;;;;-3.51;100.00;101312.50;1770973;81;20949;-84
2022/01/09 00:48:08;;;;;;;14.15;6.30;;;;;;;-3.47;100.00;101308.64;1771062;81;21138;-85
2022/01/09 00:50:38;;;;;;;13.20;5.72;;;;;;;-3.47;100.00;101300.59;1770926;80;21005;-83
2022/01/09 00:53:06;;;;;;;11.60;5.78;;;;;;;-3.49;100.00;101300.61;1770876;79;21154;-83
2022/01/09 00:55:33;;;;;;;16.20;6.55;;;;;;;-3.49;100.00;101296.79;1770882;81;21031;-84
2022/01/09 00:58:01;;;;;;;10.82;5.60;;;;;;;-3.46;100.00;101296.33;1770896;80;21019;-83
2022/01/09 01:00:28;;;;;;;14.18;5.83;;;;;;;-3.46;100.00;101287.42;1770416;80;21883;-85
2022/01/09 01:02:55;;;;;;;15.00;6.20;;;;;;;-3.45;100.00;101288.70;1770932;80;21457;-88
2022/01/09 01:05:22;;;;;;;13.85;5.97;;;;;;;-3.45;100.00;101287.84;1736817;81;21025;-88
2022/01/09 01:07:49;;;;;;;14.20;6.05;;;;;;;-3.45;100.00;101283.61;1770747;80;21941;-84
2022/01/09 01:10:18;;;;;;;16.62;6.30;;;;;;;-3.45;100.00;101279.79;1770885;80;21039;-85
2022/01/09 01:12:45;;;;;;;14.65;5.72;;;;;;;-3.43;100.00;101274.67;1770962;80;21612;-83
2022/01/09 01:15:13;;;;;;;14.43;5.83;;;;;;;-3.42;100.00;101267.45;1738112;81;21170;-83
2022/01/09 01:17:42;;;;;;;12.07;5.75;;;;;;;-3.42;100.00;101267.02;1770963;81;21043;-84
2022/01/09 01:20:11;;;;;;;12.60;5.85;;;;;;;-3.42;100.00;101256.00;1770913;81;21024;-83
2022/01/09 01:22:41;;;;;;;13.15;5.95;;;;;;;-3.39;100.00;101252.14;1770944;80;21036;-85
2022/01/09 01:25:09;;;;;;;13.22;5.67;;;;;;;-3.37;100.00;101241.52;1770826;81;21078;-84
2022/01/09 01:27:38;;;;;;;12.55;5.33;;;;;;;-3.35;100.00;101238.55;1771184;80;21008;-84
2022/01/09 01:30:08;;;;;;;17.07;6.28;;;;;;;-3.34;100.00;101230.05;1771174;80;21047;-83
2022/01/09 01:32:37;;;;;;;12.80;5.22;;;;;;;-3.31;100.00;101219.81;1770399;80;21514;-84
2022/01/09 01:35:05;;;;;;;19.02;5.92;;;;;;;-3.27;100.00;101217.67;1770794;81;21008;-84
2022/01/09 01:37:34;;;;;;;13.58;5.10;;;;;;;-3.25;100.00;101205.78;1738925;81;21149;-85
2022/01/09 01:40:01;;;;;;;13.85;5.47;;;;;;;-3.24;100.00;101204.89;1771196;81;21015;-87
2022/01/09 01:42:29;;;;;;;13.60;5.37;;;;;;;-3.21;100.00;101195.97;1770913;80;21119;-86
2022/01/09 01:44:56;;;;;;;10.40;4.55;;;;;;;-3.18;100.00;101193.41;1770236;80;21079;-85
2022/01/09 01:47:23;;;;;;;12.13;4.90;;;;;;;-3.15;100.00;101189.12;1737891;81;21083;-86
2022/01/09 01:49:50;;;;;;;11.83;4.95;;;;;;;-3.12;100.00;101181.45;1738091;81;21152;-86
2022/01/09 01:52:34;;;;;;;13.07;4.93;;;;;;;-3.09;100.00;101177.62;1770097;80;21896;-83
2022/01/09 01:55:06;;;;;;;9.80;4.28;;;;;;;-3.08;100.00;101178.87;1770980;79;22120;-83
2022/01/09 01:57:38;;;;;;;13.28;4.58;;;;;;;-3.07;100.00;101169.09;1771317;80;21075;-83
2022/01/09 02:00:13;;;;;;;10.38;4.67;;;;;;;-3.06;100.00;101161.01;1738683;80;21044;-84
2022/01/09 02:02:41;;;;;;;12.33;5.20;;;;;;;-3.03;100.00;101160.98;1771352;80;22027;-83
2022/01/09 02:05:10;;;;;;;12.23;4.65;;;;;;;-3.01;100.00;101161.83;1760814;80;21630;-82
2022/01/09 02:07:38;;;;;;;11.28;4.50;;;;;;;-2.99;100.00;101160.53;1772352;80;21050;-84
2022/01/09 02:10:08;;;;;;;10.43;4.55;;;;;;;-3.01;100.00;101150.36;1759159;80;21089;-83
2022/01/09 02:15:33;;;;;;;14.73;4.72;;;;;;;-2.98;100.00;101157.95;1771965;80;21184;-84
2022/01/09 02:18:04;;;;;;;;;;;;;;;-2.97;100.00;101155.83;1810178;77;21052;-84
2022/01/09 02:20:34;;;;;;;10.25;4.30;;;;;;;-2.95;100.00;101148.16;1811221;77;20128;-84
2022/01/09 02:23:01;;;;;;;12.50;4.72;;;;;;;-2.95;100.00;101150.70;1810871;78;21017;-83
2022/01/09 02:25:29;;;;;;;9.43;4.58;;;;;;;-2.95;100.00;101153.25;1772420;79;21720;-83
2022/01/09 02:27:57;;;;;;;12.43;4.58;;;;;;;-2.95;100.00;101145.19;1762864;80;21111;-84
2022/01/09 02:30:25;;;;;;;10.98;4.50;;;;;;;-2.93;100.00;101145.16;1809367;77;21063;-84
2022/01/09 02:32:53;;;;;;;12.23;4.30;;;;;;;-2.90;100.00;101135.78;1781955;79;21010;-87
2022/01/09 02:35:24;;;;;;;10.82;4.12;;;;;;;-2.87;100.00;101134.48;1808258;77;21021;-87
2022/01/09 02:37:51;;;;;;;11.63;4.85;;;;;;;-2.86;100.00;101125.13;1807999;78;21002;-84
2022/01/09 02:40:18;;;;;;;10.18;4.65;;;;;;;-2.85;100.00;101112.80;1782521;79;21006;-84
2022/01/09 02:42:47;;;;;;;10.70;4.50;;;;;;;-2.87;100.00;101110.69;1811236;77;21491;-84
2022/01/09 02:45:15;;;;;;;10.20;4.37;;;;;;;-2.88;100.00;101106.44;1808443;78;21041;-83
2022/01/09 02:47:43;;;;;;;9.43;4.25;;;;;;;-2.87;100.00;101109.00;1810808;79;21025;-83
2022/01/09 02:50:29;;;;;;;14.95;4.65;;;;;;;-2.87;100.00;101105.58;1810660;79;21096;-82
2022/01/09 02:52:51;;;;;;;15.35;5.65;;;;;;;-2.88;100.00;101096.25;1810317;78;21156;-82
2022/01/09 02:55:19;;;;;;;5.95;3.90;;;;;;;-2.90;100.00;101089.91;1810232;78;21718;-85
2022/01/09 02:57:51;;;;;;;13.32;5.20;;;;;;;-2.90;100.00;101087.80;1810828;78;20989;-86
2022/01/09 03:00:26;;;;;;;14.75;5.08;;;;;;;-2.91;100.00;101089.48;1810978;77;21435;-85
2022/01/09 03:02:53;;;;;;;14.28;5.72;;;;;;;-2.91;100.00;101097.13;1782010;79;21052;-83
2022/01/09 03:05:22;;;;;;;13.25;5.05;;;;;;;-2.91;100.00;101091.20;1810923;79;21143;-83
2022/01/09 03:07:50;;;;;;;10.15;5.12;;;;;;;-2.92;100.00;101092.06;1811124;77;20990;-84
2022/01/09 03:10:20;;;;;;;12.20;5.53;;;;;;;-2.93;100.00;101091.23;1781849;77;21060;-82
2022/01/09 03:12:49;;;;;;;16.10;5.65;;;;;;;-2.91;100.00;101091.20;1810898;78;21004;-86
2022/01/09 03:15:18;;;;;;;10.50;5.40;;;;;;;-2.91;100.00;101086.94;1808428;78;21017;-83
2022/01/09 03:17:46;;;;;;;15.08;5.53;;;;;;;-2.91;100.00;101083.11;1810732;77;21900;-83
2022/01/09 03:20:20;;;;;;;12.43;5.90;;;;;;;-2.91;100.00;101072.92;1810935;79;20997;-84
2022/01/09 03:22:48;;;;;;;13.03;5.37;;;;;;;-2.91;100.00;101070.37;1810746;78;20969;-83
2022/01/09 03:25:16;;;;;;;15.70;6.17;;;;;;;-2.91;100.00;101066.55;1815120;78;21034;-84
2022/01/09 03:27:46;;;;;;;14.38;6.15;;;;;;;-2.91;100.00;101066.55;1820899;78;21080;-84
2022/01/09 03:30:13;;;;;;;13.45;6.22;;;;;;;-2.91;100.00;101056.80;1820642;77;21128;-84
2022/01/09 03:32:42;;;;;;;13.85;6.10;;;;;;;-2.91;100.00;101056.35;1811979;78;21044;-83
2022/01/09 03:35:13;;;;;;;14.98;6.22;;;;;;;-2.90;100.00;101058.05;1782101;79;21053;-84
2022/01/09 03:37:44;;;;;;;14.30;5.95;;;;;;;-2.89;100.00;101058.45;1811257;77;20958;-86
2022/01/09 03:40:18;;;;;;;17.05;6.25;;;;;;;-2.89;100.00;101057.19;1781963;79;21001;-84
2022/01/09 03:42:47;;;;;;;11.60;5.83;;;;;;;-2.88;100.00;101051.23;1804923;77;21145;-83
2022/01/09 03:45:15;;;;;;;13.20;5.97;;;;;;;-2.87;100.00;101048.23;1803906;77;21017;-83
2022/01/09 03:47:43;;;;;;;11.48;5.83;;;;;;;-2.88;100.00;101046.13;1803186;79;20974;-84
2022/01/09 03:50:12;;;;;;;10.10;5.45;;;;;;;-2.86;100.00;101046.10;1803184;78;21510;-84
2022/01/09 03:52:40;;;;;;;13.75;7.08;;;;;;;-2.87;100.00;101037.63;1751065;79;21041;-84
2022/01/09 03:55:11;;;;;;;13.72;6.65;;;;;;;-2.86;100.00;101033.36;1807484;79;21131;-86
2022/01/09 03:57:39;;;;;;;9.68;5.03;;;;;;;-2.84;100.00;101025.27;1782652;80;21544;-83
2022/01/09 04:00:12;;;;;;;14.28;6.62;;;;;;;-2.81;100.00;101021.42;1782331;79;21039;-84
2022/01/09 04:02:42;;;;;;;15.63;6.17;;;;;;;-2.79;100.00;101022.66;1781465;80;21114;-83
2022/01/09 04:05:09;;;;;;;15.43;5.97;;;;;;;-2.78;100.00;101011.61;1776418;80;21025;-83
2022/01/09 04:07:37;;;;;;;11.75;5.70;;;;;;;-2.78;100.00;101011.61;1802987;79;21069;-83
2022/01/09 04:10:06;;;;;;;14.63;5.97;;;;;;;-2.79;100.00;101011.19;1803092;78;20915;-83
2022/01/09 04:12:37;;;;;;;14.87;6.10;;;;;;;-2.77;100.00;101017.13;1802867;78;21503;-83
2022/01/09 04:15:08;;;;;;;17.55;5.97;;;;;;;-2.76;100.00;101017.09;1803410;78;20987;-84
2022/01/09 04:17:51;;;;;;;14.50;5.87;;;;;;;-2.76;100.00;101015.81;1803854;78;21013;-84
2022/01/09 04:20:16;;;;;;;23.45;10.72;;;;;;;-2.75;100.00;101008.58;1802906;78;21985;-82
2022/01/09 04:22:47;;;;;;;26.50;11.75;;;;;;;-2.73;100.00;101007.28;1802054;79;21780;-85
2022/01/09 04:25:15;;;;;;;17.90;8.20;;;;;;;-2.74;100.00;101006.86;1803381;79;21625;-86
2022/01/09 04:27:43;;;;;;;11.97;6.15;;;;;;;-2.74;100.00;101006.86;1803106;79;21034;-84
2022/01/09 04:30:12;;;;;;;12.90;5.12;;;;;;;-2.72;100.00;100997.05;1750863;79;21064;-82
2022/01/09 04:32:39;;;;;;;13.20;5.47;;;;;;;-2.72;100.00;100997.05;1803238;78;21773;-81
2022/01/09 04:35:08;;;;;;;8.10;4.50;;;;;;;-2.72;100.00;100994.50;1802959;78;21010;-83
2022/01/09 04:37:37;;;;;;;10.90;4.55;;;;;;;-2.71;100.00;100985.99;1805688;79;20975;-83
2022/01/09 04:40:08;;;;;;;8.30;4.53;;;;;;;-2.68;100.00;100977.90;1782487;79;21044;-82
2022/01/09 04:42:41;;;;;;;13.55;4.92;;;;;;;-2.68;100.00;100971.52;1794662;78;21085;-85
2022/01/09 04:45:07;;;;;;;14.25;5.53;;;;;;;-2.67;100.00;100971.94;1812168;78;21147;-82
2022/01/09 04:47:35;;;;;;;8.50;4.65;;;;;;;-2.65;100.00;100974.88;1799151;77;20970;-82
2022/01/09 04:50:07;;;;;;;11.93;5.10;;;;;;;-2.62;100.00;100975.25;1820852;77;21026;-85
2022/01/09 04:52:38;;;;;;;10.10;5.33;;;;;;;-2.61;100.00;100977.80;1820283;77;20990;-82
2022/01/09 04:55:04;;;;;;;12.90;4.97;;;;;;;-2.60;100.00;100985.00;1796424;78;21096;-83
2022/01/09 04:57:32;;;;;;;9.63;5.20;;;;;;;-2.60;100.00;100977.36;1799348;78;21105;-83
2022/01/09 04:59:59;;;;;;;8.98;5.15;;;;;;;-2.59;100.00;100986.25;1748209;80;20993;-84
2022/01/09 05:02:26;;;;;;;29.02;6.87;;;;;;;-2.59;100.00;100981.14;1712791;82;21141;-82
2022/01/09 05:04:53;;;;;;;53.17;8.68;;;;;;;-2.49;100.00;100982.30;1748328;80;22065;-84
2022/01/09 05:07:24;;;;;;;11.45;5.55;;;;;;;-1.93;100.00;100986.92;1742003;82;21031;-81
2022/01/09 05:09:53;;;;;;;10.28;5.50;;;;;;;-1.63;100.00;100982.13;1748316;80;21004;-85
2022/01/09 05:12:20;;;;;;;8.95;5.00;;;;;;;-1.81;100.00;100973.09;1746069;80;21069;-84
2022/01/09 05:14:47;;;;;;;7.87;5.05;;;;;;;-1.97;100.00;100975.52;1760456;81;21608;-84
2022/01/09 05:17:14;;;;;;;33.50;9.25;;;;;;;-2.09;100.00;100974.01;1763045;79;21072;-81
2022/01/09 05:19:41;;;;;;;10.95;5.85;;;;;;;-1.93;100.00;100971.61;1770755;80;21493;-84
2022/01/09 05:22:08;;;;;;;9.45;5.67;;;;;;;-1.48;100.00;100975.90;1769924;80;21580;-84
2022/01/09 05:24:36;;;;;;;10.35;4.95;;;;;;;-1.45;100.00;100973.72;1770620;80;21051;-81
2022/01/09 05:27:04;;;;;;;7.92;4.67;;;;;;;-1.62;100.00;100975.33;1770464;81;21052;-82
2022/01/09 05:29:31;;;;;;;13.05;5.12;;;;;;;-1.78;100.00;100973.05;1737366;80;21063;-83
2022/01/09 05:32:00;;;;;;;12.37;4.60;;;;;;;-1.88;100.00;100969.42;1770536;80;21024;-83
2022/01/09 05:34:27;;;;;;;6.55;4.50;;;;;;;-1.97;100.00;100966.58;1770743;81;21851;-82
2022/01/09 05:36:54;;;;;;;8.50;4.80;;;;;;;-2.04;100.00;100956.90;1770475;80;21075;-83
2022/01/09 05:39:22;;;;;;;13.65;5.00;;;;;;;-2.10;100.00;100962.97;1736278;80;21551;-83
2022/01/09 05:41:51;;;;;;;8.95;5.00;;;;;;;-2.16;100.00;100959.22;1755151;80;20995;-83
2022/01/09 05:44:21;;;;;;;9.35;4.70;;;;;;;-2.18;100.00;100969.05;1754788;81;21074;-85
2022/01/09 05:46:48;;;;;;;7.75;4.37;;;;;;;-2.19;100.00;100963.13;1816300;77;21158;-85
2022/01/09 05:49:17;;;;;;;6.33;4.25;;;;;;;-2.19;100.00;100962.26;1810761;78;22032;-86
2022/01/09 05:51:45;;;;;;;8.35;4.95;;;;;;;-2.20;100.00;100952.50;1817852;77;21010;-83
2022/01/09 05:54:12;;;;;;;6.35;4.10;;;;;;;-2.17;100.00;100957.56;1818351;77;21006;-82
2022/01/09 05:56:39;;;;;;;6.83;4.05;;;;;;;-2.17;100.00;100957.56;1816589;78;21567;-82
2022/01/09 05:59:06;;;;;;;7.33;4.40;;;;;;;-2.17;100.00;100951.60;1800158;78;21151;-86
2022/01/09 06:01:34;;;;;;;6.28;4.37;;;;;;;-2.19;100.00;100950.78;1818075;77;20971;-84
2022/01/09 06:04:02;;;;;;;9.40;4.25;;;;;;;-2.19;100.00;100948.23;1797311;78;21041;-83
2022/01/09 06:06:30;;;;;;;6.78;4.53;;;;;;;-2.17;100.00;100945.22;1817832;77;21014;-83
2022/01/09 06:08:57;;;;;;;7.45;4.47;;;;;;;-2.18;100.00;100939.30;1818144;78;21108;-83
2022/01/09 06:11:25;;;;;;;6.97;4.50;;;;;;;-2.15;100.00;100935.84;1818115;78;21109;-82
2022/01/09 06:13:52;;;;;;;7.10;4.87;;;;;;;-2.13;100.00;100932.84;1797251;78;20967;-83
2022/01/09 06:16:19;;;;;;;5.80;4.20;;;;;;;-2.11;100.00;100918.31;1818036;77;21594;-83
2022/01/09 06:18:46;;;;;;;8.18;5.33;;;;;;;-2.11;100.00;100914.48;1817856;77;21448;-83
2022/01/09 06:21:15;;;;;;;10.25;5.42;;;;;;;-2.08;100.00;100902.52;1818199;78;21132;-82
2022/01/09 06:23:42;;;;;;;13.58;5.37;;;;;;;-2.02;100.00;100902.02;1818288;78;21112;-83
2022/01/09 06:26:09;;;;;;;8.45;4.75;;;;;;;-2.02;100.00;100890.08;1817783;77;21369;-82
2022/01/09 06:28:37;;;;;;;10.28;5.03;;;;;;;-1.98;100.00;100890.87;1817588;77;21521;-84
2022/01/09 06:31:04;;;;;;;11.40;5.05;;;;;;;-1.98;100.00;100891.73;1817871;78;21014;-82
2022/01/09 06:33:31;;;;;;;7.30;4.30;;;;;;;-1.95;100.00;100892.09;1769632;79;21073;-83
2022/01/09 06:35:58;;;;;;;8.50;4.78;;;;;;;-1.93;100.00;100891.20;1773723;79;21021;-82
2022/01/09 06:38:25;;;;;;;8.10;5.00;;;;;;;-1.92;100.00;100886.50;1785763;80;21728;-83
2022/01/09 06:40:53;;;;;;;11.70;7.12;;;;;;;-1.92;100.00;100889.05;1806924;77;21037;-84
2022/01/09 06:43:20;;;;;;;8.45;5.00;;;;;;;-1.92;100.00;100894.16;1796959;78;21018;-84
2022/01/09 06:45:48;;;;;;;7.22;4.80;;;;;;;-1.92;100.00;100888.19;1801796;77;21074;-84
2022/01/09 06:48:15;;;;;;;7.20;4.42;;;;;;;-1.92;100.00;100890.75;1792422;78;21967;-82
2022/01/09 06:50:42;;;;;;;5.90;4.37;;;;;;;-1.93;100.00;100889.92;1792492;78;20992;-83
2022/01/09 06:53:09;;;;;;;8.50;4.50;;;;;;;-1.93;100.00;100891.64;1792504;78;20997;-84
2022/01/09 06:55:36;;;;;;;9.30;4.25;;;;;;;-1.93;100.00;100887.81;1792478;78;21003;-83
2022/01/09 06:58:03;;;;;;;6.42;4.45;;;;;;;-1.92;100.00;100886.50;1792357;78;20996;-83
2022/01/09 07:00:30;;;;;;;7.70;4.05;;;;;;;-1.92;100.00;100866.08;1770493;78;21113;-82
2022/01/09 07:02:57;;;;;;;8.58;4.50;;;;;;;-1.92;100.00;100860.11;1792803;78;21607;-83
2022/01/09 07:05:24;;;;;;;10.10;4.92;;;;;;;-1.91;100.00;100854.14;1792619;78;21035;-82
2022/01/09 07:07:51;;;;;;;9.48;4.85;;;;;;;-1.93;100.00;100854.63;1792918;78;21501;-82
2022/01/09 07:10:18;;;;;;;10.20;4.87;;;;;;;-1.93;100.00;100858.02;1771271;78;20992;-82
2022/01/09 07:12:47;;;;;;;10.78;4.70;;;;;;;-1.90;100.00;100860.94;1792641;78;21054;-84
2022/01/09 07:15:16;;;;;;;7.60;4.22;;;;;;;-1.89;100.00;100861.80;1761643;79;21044;-83
2022/01/09 07:17:43;;;;;;;9.28;5.22;;;;;;;-1.88;100.00;100865.58;1761517;80;21541;-84
2022/01/09 07:20:11;;;;;;;8.23;4.60;;;;;;;-1.88;100.00;100864.75;1761329;80;21039;-82
2022/01/09 07:22:38;;;;;;;8.90;5.10;;;;;;;-1.87;100.00;100860.03;1776546;77;21078;-82
2022/01/09 07:25:06;;;;;;;11.18;5.10;;;;;;;-1.85;100.00;100864.67;1793233;78;21101;-83
2022/01/09 07:27:34;;;;;;;9.98;5.20;;;;;;;-1.84;100.00;100858.70;1792894;78;21016;-82
2022/01/09 07:30:02;;;;;;;8.73;5.20;;;;;;;-1.83;100.00;100855.28;1793261;78;21646;-86
2022/01/09 07:32:29;;;;;;;11.05;5.00;;;;;;;-1.78;100.00;100858.16;1792775;78;21070;-85
2022/01/09 07:34:57;;;;;;;12.85;7.15;;;;;;;-1.72;100.00;100857.17;1792680;80;21082;-84
2022/01/09 07:37:26;;;;;;;10.13;5.58;;;;;;;-1.63;100.00;100850.60;1793159;78;21107;-84
2022/01/09 07:39:53;;;;;;;11.68;5.65;;;;;;;-1.61;100.00;100848.86;1793034;78;21591;-83
2022/01/09 07:42:21;;;;;;;10.30;5.35;;;;;;;-1.59;100.00;100850.96;1792430;78;21642;-83
2022/01/09 07:44:48;;;;;;;9.03;5.10;;;;;;;-1.55;100.00;100858.54;1794406;78;21620;-83
2022/01/09 07:47:15;;;;;;;17.07;5.12;;;;;;;-1.52;100.00;100852.92;1798302;77;21441;-81
2022/01/09 07:49:43;;;;;;;20.40;5.95;;;;;;;-1.44;100.00;100854.05;1809444;78;21068;-80
2022/01/09 07:52:10;;;;;;;10.53;5.25;;;;;;;-1.25;100.00;100857.50;1798304;77;21084;-83
2022/01/09 07:54:38;;;;;;;11.20;6.70;;;;;;;-0.91;100.00;100851.59;1809513;77;21021;-83
2022/01/09 07:57:05;;;;;;;8.43;5.55;;;;;;;-0.82;100.00;100847.55;1801505;79;21074;-84
2022/01/09 07:59:33;;;;;;;9.55;5.58;;;;;;;-0.94;100.00;100838.91;1793305;79;20967;-83
2022/01/09 08:02:03;;;;;;;8.08;5.50;;;;;;;-1.05;100.00;100839.16;1777577;80;21815;-85
2022/01/09 08:04:31;;;;;;;8.40;5.25;;;;;;;-1.14;100.00;100832.52;1801279;79;20987;-85
2022/01/09 08:06:58;;;;;;;10.35;6.03;;;;;;;-1.20;100.00;100836.51;1823470;76;21049;-83
2022/01/09 08:09:27;;;;;;;15.58;6.30;;;;;;;-1.24;100.00;100820.41;1795512;79;21050;-83
2022/01/09 08:11:58;;;;;;;12.07;5.72;;;;;;;-1.28;100.00;100832.41;1791952;78;21001;-83
2022/01/09 08:14:29;;;;;;;9.53;5.40;;;;;;;-1.30;100.00;100823.93;1795279;79;21104;-83
2022/01/09 08:16:56;;;;;;;12.53;5.87;;;;;;;-1.27;100.00;100819.19;1808470;77;21062;-85
2022/01/09 08:19:23;;;;;;;10.82;5.78;;;;;;;-1.27;100.00;100809.82;1772044;79;20999;-85
2022/01/09 08:21:53;;;;;;;12.88;6.22;;;;;;;-1.27;100.00;100802.16;1772268;79;21053;-85
2022/01/09 08:24:22;;;;;;;9.40;5.67;;;;;;;-1.25;100.00;100796.17;1773674;79;21047;-83
2022/01/09 08:26:52;;;;;;;10.32;6.15;;;;;;;-1.17;100.00;100782.78;1773349;79;21130;-85
2022/01/09 08:29:19;;;;;;;8.58;5.90;;;;;;;-1.14;100.00;100783.97;1773360;79;20985;-82
2022/01/09 08:31:47;;;;;;;10.28;5.92;;;;;;;-1.08;100.00;100795.31;1786401;79;21672;-83
2022/01/09 08:34:14;;;;;;;9.48;5.90;;;;;;;-1.06;100.00;100784.62;1772153;80;21548;-83
2022/01/09 08:36:41;;;;;;;9.53;5.50;;;;;;;-1.04;100.00;100784.61;1770999;79;21011;-85
2022/01/09 08:39:10;;;;;;;10.43;7.00;;;;;;;-1.03;100.00;100781.14;1781250;77;21731;-83
2022/01/09 08:41:38;;;;;;;12.05;5.92;;;;;;;-0.99;100.00;100778.94;1771319;79;22096;-83
2022/01/09 08:44:07;;;;;;;9.15;5.85;;;;;;;-0.99;100.00;100777.66;1772128;79;20991;-83
2022/01/09 08:46:36;;;;;;;8.60;5.50;;;;;;;-1.00;100.00;100774.24;1777695;79;20999;-83
2022/01/09 08:49:04;;;;;;;12.43;5.87;;;;;;;-1.04;100.00;100782.87;1763994;79;21026;-83
2022/01/09 08:51:32;;;;;;;12.30;5.95;;;;;;;-1.00;100.00;100775.97;1810978;79;21141;-84
2022/01/09 08:54:00;;;;;;;10.93;6.83;;;;;;;-0.97;100.00;100772.08;1810717;79;21021;-84
2022/01/09 08:56:28;;;;;;;13.35;7.45;;;;;;;-0.92;100.00;100771.97;1780765;80;21021;-84
2022/01/09 08:59:01;;;;;;;11.55;7.30;;;;;;;-0.88;100.00;100763.33;1810793;78;21586;-83
2022/01/09 09:01:28;;;;;;;11.65;6.80;;;;;;;-0.85;100.00;100757.70;1810973;79;21492;-84
2022/01/09 09:03:57;;;;;;;10.45;6.60;;;;;;;-0.81;100.00;100749.50;1810955;79;21179;-83
2022/01/09 09:06:24;;;;;;;9.70;6.55;;;;;;;-0.78;100.00;100746.02;1810936;79;21496;-84
2022/01/09 09:08:51;;;;;;;11.65;7.70;;;;;;;-0.80;100.00;100746.07;1810908;79;21396;-83
2022/01/09 09:11:18;;;;;;;12.33;7.83;;;;;;;-0.85;100.00;100741.08;1810850;79;21078;-83
2022/01/09 09:13:45;;;;;;;12.10;7.17;;;;;;;-0.85;100.00;100741.52;1811064;79;22238;-83
2022/01/09 09:16:13;;;;;;;10.30;6.30;;;;;;;-0.85;100.00;100733.86;1817574;78;21042;-83
2022/01/09 09:18:43;;;;;;;10.88;6.47;;;;;;;-0.84;100.00;100733.80;1807752;79;20974;-83
2022/01/09 09:21:10;;;;;;;8.08;5.47;;;;;;;-0.78;100.00;100730.68;1811370;79;21069;-83
2022/01/09 09:23:38;;;;;;;10.20;6.67;;;;;;;-0.74;100.00;100726.73;1810918;79;21493;-84
2022/01/09 09:26:05;;;;;;;11.90;6.95;;;;;;;-0.73;100.00;100725.85;1817702;78;21065;-83
2022/01/09 09:28:32;;;;;;;9.78;6.17;;;;;;;-0.72;100.00;100716.02;1817416;78;21072;-83
2022/01/09 09:30:59;;;;;;;10.00;6.20;;;;;;;-0.68;100.00;100725.28;1811227;79;21026;-83
2022/01/09 09:33:26;;;;;;;10.32;6.37;;;;;;;-0.66;100.00;100723.53;1810862;79;21065;-83
2022/01/09 09:35:53;;;;;;;11.20;6.50;;;;;;;-0.68;100.00;100716.33;1811428;79;21002;-83
2022/01/09 09:38:20;;;;;;;11.12;6.45;;;;;;;-0.70;100.00;100719.39;1810867;79;21124;-83
2022/01/09 09:40:47;;;;;;;11.15;6.75;;;;;;;-0.71;100.00;100718.98;1781076;80;21332;-83
2022/01/09 09:43:16;;;;;;;11.95;7.20;;;;;;;-0.72;100.00;100713.47;1810806;79;21017;-83
2022/01/09 09:45:44;;;;;;;11.97;7.72;;;;;;;-0.73;100.00;100716.08;1810454;79;21013;-83
2022/01/09 09:48:11;;;;;;;17.12;8.80;;;;;;;-0.73;100.00;100713.06;1786538;79;21065;-84
2022/01/09 09:50:38;;;;;;;16.40;8.73;;;;;;;-0.71;100.00;100711.73;1771548;79;21559;-83
2022/01/09 09:53:06;;;;;;;17.27;9.23;;;;;;;-0.69;100.00;100712.12;1771692;80;21143;-83
2022/01/09 09:55:34;;;;;;;17.50;9.18;;;;;;;-0.67;100.00;100705.67;1771441;80;20975;-83
2022/01/09 09:58:03;;;;;;;14.53;8.80;;;;;;;-0.67;100.00;100706.50;1771942;79;21082;-83
2022/01/09 10:00:32;;;;;;;15.55;8.55;;;;;;;-0.66;100.00;100697.95;1773838;79;21008;-83
2022/01/09 10:03:02;;;;;;;14.73;8.68;;;;;;;-0.63;100.00;100691.91;1773954;79;21081;-84
2022/01/09 10:05:35;;;;;;;13.08;8.13;;;;;;;-0.59;100.00;100690.10;1772725;79;21769;-83
2022/01/09 10:08:10;;;;;;;9.85;7.65;;;;;;;-0.56;100.00;100687.47;1772098;79;20980;-83
2022/01/09 10:10:39;;;;;;;11.30;7.22;;;;;;;-0.50;100.00;100681.75;1785855;78;21444;-84
2022/01/09 10:13:16;;;;;;;10.93;7.25;;;;;;;-0.43;100.00;100676.45;1815217;78;21044;-85
2022/01/09 10:15:54;;;;;;;9.30;7.10;;;;;;;-0.39;100.00;100678.89;1815259;77;20972;-83
2022/01/09 10:18:46;;;;;;;13.50;8.45;;;;;;;-0.37;100.00;100670.73;1810796;79;21105;-82
2022/01/09 10:21:20;;;;;;;16.25;8.60;;;;;;;-0.37;100.00;100656.66;1812914;77;21009;-82
2022/01/09 10:24:11;;;;;;;16.35;9.33;;;;;;;-0.41;100.00;100656.34;1815647;79;21012;-83
2022/01/09 10:26:51;;;;;;;15.50;9.75;;;;;;;-0.41;100.00;100649.11;1810030;77;21024;-86
2022/01/09 10:29:20;;;;;;;17.05;9.78;;;;;;;-0.40;100.00;100650.34;1810540;78;21051;-84
2022/01/09 10:31:51;;;;;;;18.42;10.58;;;;;;;-0.41;100.00;100644.00;1815208;79;21205;-85
2022/01/09 10:34:18;;;;;;;14.30;9.28;;;;;;;-0.40;100.00;100639.28;1815727;77;20977;-84
2022/01/09 10:36:51;;;;;;;17.40;10.90;;;;;;;-0.42;100.00;100634.19;1810131;78;20981;-83
2022/01/09 10:39:30;;;;;;;18.05;11.38;;;;;;;-0.42;100.00;100628.25;1815093;77;21021;-84
2022/01/09 10:42:02;;;;;;;14.50;10.32;;;;;;;-0.43;100.00;100629.95;1815540;77;21020;-84
2022/01/09 10:44:34;;;;;;;17.30;10.15;;;;;;;-0.43;100.00;100634.24;1815355;79;21123;-84
2022/01/09 10:47:09;;;;;;;16.07;10.25;;;;;;;-0.42;100.00;100625.23;1815102;77;20978;-85
2022/01/09 10:49:49;;;;;;;15.28;10.53;;;;;;;-0.42;100.00;100626.51;1815156;77;21004;-85
2022/01/09 10:52:31;;;;;;;15.72;10.82;;;;;;;-0.39;100.00;100622.59;1815666;79;21510;-87
2022/01/09 10:55:02;;;;;;;15.85;10.82;;;;;;;-0.37;100.00;100613.58;1815559;77;21043;-84
2022/01/09 10:57:37;;;;;;;17.35;11.65;;;;;;;-0.34;100.00;100615.61;1778371;79;21266;-84
2022/01/09 11:00:12;;;;;;;17.02;10.88;;;;;;;-0.33;100.00;100603.22;1780622;79;21065;-86
2022/01/09 11:02:40;;;;;;;16.45;10.48;;;;;;;-0.29;100.00;100598.02;1772044;81;21043;-85
2022/01/09 11:05:08;;;;;;;15.88;10.60;;;;;;;-0.28;100.00;100596.68;1786691;79;21077;-84
2022/01/09 11:07:36;;;;;;;16.50;11.28;;;;;;;-0.26;100.00;100587.66;1764821;79;21114;-84
2022/01/09 11:10:07;;;;;;;15.98;11.10;;;;;;;-0.23;100.00;100591.42;1742563;80;22059;-88
2022/01/09 11:12:46;;;;;;;15.80;11.65;;;;;;;-0.21;100.00;100581.98;1743119;80;21075;-84
2022/01/09 11:15:09;;;;;;;17.67;12.63;;;;;;;-0.19;100.00;100584.89;1744734;80;21091;-87
2022/01/09 11:17:39;;;;;;;18.92;11.95;;;;;;;-0.17;100.00;100593.79;1768842;79;21036;-86
2022/01/09 11:20:07;;;;;;;16.32;11.00;;;;;;;-0.15;100.00;100589.47;1777616;79;21135;-86
2022/01/09 11:22:35;;;;;;;16.15;11.95;;;;;;;-0.14;100.00;100586.03;1773406;79;21127;-85